sensor_id;sensor_type;location;lat;lon;timestamp;P1;durP1;ratioP1;P2;durP2;ratioP2
37309;SDS011;23195;47.744;7.358;2023-09-19T05:53:09;4.30;;;0.97;;
37309;SDS011;23195;47.744;7.358;2023-09-19T05:55:37;5.63;;;1.20;;
37309;SDS011;23195;47.744;7.358;2023-09-19T05:58:03;2.23;;;1.00;;
37309;SDS011;23195;47.744;7.358;2023-09-19T06:00:30;1.87;;;1.30;;
37309;SDS011;23195;47.744;7.358;2023-09-19T06:02:57;2.40;;;1.00;;
37309;SDS011;23195;47.744;7.358;2023-09-19T06:05:24;3.97;;;1.20;;
37309;SDS011;23195;47.744;7.358;2023-09-19T06:07:57;1.60;;;1.10;;
37309;SDS011;23195;47.744;7.358;2023-09-19T06:10:25;2.40;;;1.30;;
37309;SDS011;23195;47.744;7.358;2023-09-19T06:12:53;2.77;;;1.20;;
37309;SDS011;23195;47.744;7.358;2023-09-19T06:15:20;2.73;;;1.20;;
37309;SDS011;23195;47.744;7.358;2023-09-19T06:17:50;4.67;;;1.10;;
37309;SDS011;23195;47.744;7.358;2023-09-19T06:20:20;2.83;;;1.10;;
37309;SDS011;23195;47.744;7.358;2023-09-19T06:22:48;4.57;;;1.00;;
37309;SDS011;23195;47.744;7.358;2023-09-19T06:25:15;3.73;;;1.20;;
37309;SDS011;23195;47.744;7.358;2023-09-19T06:27:53;1.50;;;1.03;;
37309;SDS011;23195;47.744;7.358;2023-09-19T06:30:20;1.43;;;1.03;;
37309;SDS011;23195;47.744;7.358;2023-09-19T06:32:48;2.70;;;1.00;;
37309;SDS011;23195;47.744;7.358;2023-09-19T06:35:15;5.43;;;1.43;;
37309;SDS011;23195;47.744;7.358;2023-09-19T06:37:44;1.20;;;1.10;;
37309;SDS011;23195;47.744;7.358;2023-09-19T06:40:11;1.47;;;1.00;;
37309;SDS011;23195;47.744;7.358;2023-09-19T06:42:42;1.80;;;1.10;;
37309;SDS011;23195;47.744;7.358;2023-09-19T06:45:18;3.67;;;1.20;;
37309;SDS011;23195;47.744;7.358;2023-09-19T06:47:47;2.70;;;0.97;;
37309;SDS011;23195;47.744;7.358;2023-09-19T06:50:15;2.67;;;1.37;;
37309;SDS011;23195;47.744;7.358;2023-09-19T06:52:47;4.77;;;1.20;;
37309;SDS011;23195;47.744;7.358;2023-09-19T06:55:15;1.87;;;1.00;;
37309;SDS011;23195;47.744;7.358;2023-09-19T06:58:02;2.27;;;1.13;;
37309;SDS011;23195;47.744;7.358;2023-09-19T07:04:25;4.77;;;1.40;;
37309;SDS011;23195;47.744;7.358;2023-09-19T07:17:16;4.37;;;1.30;;
37309;SDS011;23195;47.744;7.358;2023-09-19T07:19:48;3.27;;;1.13;;
37309;SDS011;23195;47.744;7.358;2023-09-19T07:22:22;4.23;;;1.00;;
37309;SDS011;23195;47.744;7.358;2023-09-19T07:25:25;4.03;;;1.77;;
37309;SDS011;23195;47.744;7.358;2023-09-19T07:31:15;2.43;;;1.00;;
37309;SDS011;23195;47.744;7.358;2023-09-19T07:33:42;1.83;;;1.07;;
37309;SDS011;23195;47.744;7.358;2023-09-19T07:36:16;2.47;;;1.10;;
37309;SDS011;23195;47.744;7.358;2023-09-19T07:38:45;3.53;;;1.20;;
37309;SDS011;23195;47.744;7.358;2023-09-19T07:45:09;3.13;;;0.93;;
37309;SDS011;23195;47.744;7.358;2023-09-19T07:47:45;1.67;;;1.07;;
37309;SDS011;23195;47.744;7.358;2023-09-19T07:50:13;4.07;;;1.10;;
37309;SDS011;23195;47.744;7.358;2023-09-19T07:52:49;1.17;;;0.73;;
37309;SDS011;23195;47.744;7.358;2023-09-19T07:55:26;2.27;;;0.90;;
37309;SDS011;23195;47.744;7.358;2023-09-19T07:58:03;2.67;;;0.93;;
37309;SDS011;23195;47.744;7.358;2023-09-19T08:00:44;3.00;;;1.20;;
37309;SDS011;23195;47.744;7.358;2023-09-19T08:03:40;2.43;;;0.90;;
37309;SDS011;23195;47.744;7.358;2023-09-19T08:19:33;3.00;;;0.90;;
37309;SDS011;23195;47.744;7.358;2023-09-19T08:22:19;4.40;;;1.10;;
37309;SDS011;23195;47.744;7.358;2023-09-19T08:25:34;3.60;;;1.13;;
37309;SDS011;23195;47.744;7.358;2023-09-19T08:28:03;3.83;;;0.93;;
37309;SDS011;23195;47.744;7.358;2023-09-19T08:30:42;1.23;;;0.80;;
37309;SDS011;23195;47.744;7.358;2023-09-19T08:33:25;2.87;;;1.13;;
37309;SDS011;23195;47.744;7.358;2023-09-19T08:39:04;3.00;;;0.90;;
37309;SDS011;23195;47.744;7.358;2023-09-19T08:45:44;2.17;;;1.03;;
37309;SDS011;23195;47.744;7.358;2023-09-19T08:48:31;3.63;;;1.30;;
37309;SDS011;23195;47.744;7.358;2023-09-19T08:55:19;2.00;;;0.90;;
37309;SDS011;23195;47.744;7.358;2023-09-19T08:58:00;2.67;;;0.90;;
37309;SDS011;23195;47.744;7.358;2023-09-19T09:01:21;2.60;;;1.20;;
37309;SDS011;23195;47.744;7.358;2023-09-19T09:04:01;2.07;;;0.90;;
37309;SDS011;23195;47.744;7.358;2023-09-19T09:06:30;1.53;;;1.10;;
37309;SDS011;23195;47.744;7.358;2023-09-19T09:09:14;2.47;;;1.20;;
37309;SDS011;23195;47.744;7.358;2023-09-19T09:12:03;3.00;;;1.20;;
37309;SDS011;23195;47.744;7.358;2023-09-19T09:18:22;2.73;;;1.13;;
37309;SDS011;23195;47.744;7.358;2023-09-19T09:24:31;2.93;;;1.30;;
37309;SDS011;23195;47.744;7.358;2023-09-19T09:27:06;1.83;;;0.90;;
37309;SDS011;23195;47.744;7.358;2023-09-19T09:30:00;3.07;;;1.23;;
37309;SDS011;23195;47.744;7.358;2023-09-19T09:46:25;2.83;;;1.00;;
37309;SDS011;23195;47.744;7.358;2023-09-19T10:00:14;2.20;;;1.13;;
37309;SDS011;23195;47.744;7.358;2023-09-19T10:14:27;3.37;;;1.10;;
37309;SDS011;23195;47.744;7.358;2023-09-19T10:21:06;2.00;;;1.00;;
37309;SDS011;23195;47.744;7.358;2023-09-19T10:27:44;5.07;;;1.27;;
37309;SDS011;23195;47.744;7.358;2023-09-19T10:33:45;1.97;;;1.17;;
37309;SDS011;23195;47.744;7.358;2023-09-19T11:10:43;4.03;;;1.30;;
37309;SDS011;23195;47.744;7.358;2023-09-19T11:20:17;1.20;;;1.10;;
37309;SDS011;23195;47.744;7.358;2023-09-19T11:40:44;1.63;;;1.00;;
37309;SDS011;23195;47.744;7.358;2023-09-19T11:43:49;2.57;;;1.20;;
37309;SDS011;23195;47.744;7.358;2023-09-19T11:46:53;7.10;;;1.10;;
37309;SDS011;23195;47.744;7.358;2023-09-19T11:50:36;1.20;;;1.00;;
37309;SDS011;23195;47.744;7.358;2023-09-19T11:57:10;2.00;;;0.97;;
37309;SDS011;23195;47.744;7.358;2023-09-19T12:00:17;1.23;;;1.00;;
37309;SDS011;23195;47.744;7.358;2023-09-19T12:14:03;3.33;;;0.97;;
37309;SDS011;23195;47.744;7.358;2023-09-19T12:16:40;1.87;;;1.00;;
37309;SDS011;23195;47.744;7.358;2023-09-19T12:40:03;1.33;;;0.90;;
37309;SDS011;23195;47.744;7.358;2023-09-19T12:46:41;0.70;;;0.70;;
37309;SDS011;23195;47.744;7.358;2023-09-19T13:07:04;4.00;;;1.20;;
37309;SDS011;23195;47.744;7.358;2023-09-19T13:17:17;2.00;;;1.03;;
37309;SDS011;23195;47.744;7.358;2023-09-19T13:20:20;3.23;;;1.20;;
37309;SDS011;23195;47.744;7.358;2023-09-19T14:02:45;5.30;;;1.10;;
37309;SDS011;23195;47.744;7.358;2023-09-19T14:05:29;1.57;;;1.03;;
37309;SDS011;23195;47.744;7.358;2023-09-19T14:30:58;1.63;;;1.03;;
37309;SDS011;23195;47.744;7.358;2023-09-19T14:48:48;1.63;;;0.90;;
37309;SDS011;23195;47.744;7.358;2023-09-19T14:51:34;2.00;;;0.80;;
37309;SDS011;23195;47.744;7.358;2023-09-19T15:05:05;1.43;;;1.00;;
37309;SDS011;23195;47.744;7.358;2023-09-19T15:08:15;1.50;;;1.07;;
37309;SDS011;23195;47.744;7.358;2023-09-19T15:15:28;1.40;;;0.93;;
37309;SDS011;23195;47.744;7.358;2023-09-19T15:18:42;4.27;;;1.30;;
37309;SDS011;23195;47.744;7.358;2023-09-19T16:11:32;2.67;;;1.10;;
37309;SDS011;23195;47.744;7.358;2023-09-19T17:54:30;2.53;;;1.30;;
37309;SDS011;23195;47.744;7.358;2023-09-19T17:56:56;2.47;;;1.50;;
37309;SDS011;23195;47.744;7.358;2023-09-19T17:59:24;3.20;;;1.43;;
37309;SDS011;23195;47.744;7.358;2023-09-19T18:01:50;1.40;;;1.30;;
37309;SDS011;23195;47.744;7.358;2023-09-19T18:04:18;1.50;;;1.40;;
37309;SDS011;23195;47.744;7.358;2023-09-19T18:06:44;2.83;;;1.30;;
37309;SDS011;23195;47.744;7.358;2023-09-19T18:09:13;3.33;;;1.50;;
37309;SDS011;23195;47.744;7.358;2023-09-19T18:11:42;2.57;;;1.70;;
37309;SDS011;23195;47.744;7.358;2023-09-19T18:14:08;6.10;;;2.20;;
37309;SDS011;23195;47.744;7.358;2023-09-19T18:16:35;3.57;;;2.37;;
37309;SDS011;23195;47.744;7.358;2023-09-19T18:19:02;4.93;;;2.20;;
37309;SDS011;23195;47.744;7.358;2023-09-19T18:21:28;3.07;;;2.10;;
37309;SDS011;23195;47.744;7.358;2023-09-19T18:23:58;4.67;;;2.37;;
37309;SDS011;23195;47.744;7.358;2023-09-19T18:26:29;4.30;;;2.90;;
37309;SDS011;23195;47.744;7.358;2023-09-19T18:28:55;2.50;;;1.50;;
37309;SDS011;23195;47.744;7.358;2023-09-19T18:31:25;3.80;;;1.60;;
37309;SDS011;23195;47.744;7.358;2023-09-19T18:33:56;4.50;;;1.80;;
37309;SDS011;23195;47.744;7.358;2023-09-19T18:36:25;4.30;;;1.73;;
37309;SDS011;23195;47.744;7.358;2023-09-19T18:38:53;3.70;;;1.77;;
37309;SDS011;23195;47.744;7.358;2023-09-19T18:41:20;3.40;;;1.43;;
37309;SDS011;23195;47.744;7.358;2023-09-19T18:43:46;3.53;;;1.70;;
37309;SDS011;23195;47.744;7.358;2023-09-19T18:46:11;2.50;;;1.70;;
37309;SDS011;23195;47.744;7.358;2023-09-19T18:48:38;2.60;;;1.50;;
37309;SDS011;23195;47.744;7.358;2023-09-19T18:51:06;3.10;;;1.63;;
37309;SDS011;23195;47.744;7.358;2023-09-19T18:53:36;2.27;;;1.60;;
37309;SDS011;23195;47.744;7.358;2023-09-19T18:56:05;4.43;;;1.70;;
37309;SDS011;23195;47.744;7.358;2023-09-19T18:58:33;2.93;;;1.90;;
37309;SDS011;23195;47.744;7.358;2023-09-19T19:01:06;4.70;;;1.77;;
37309;SDS011;23195;47.744;7.358;2023-09-19T19:03:33;1.70;;;1.30;;
37309;SDS011;23195;47.744;7.358;2023-09-19T19:06:05;2.90;;;1.50;;
37309;SDS011;23195;47.744;7.358;2023-09-19T19:08:32;5.33;;;1.97;;
37309;SDS011;23195;47.744;7.358;2023-09-19T19:10:59;3.70;;;1.87;;
37309;SDS011;23195;47.744;7.358;2023-09-19T19:13:25;2.10;;;1.83;;
37309;SDS011;23195;47.744;7.358;2023-09-19T19:15:52;4.10;;;2.00;;
37309;SDS011;23195;47.744;7.358;2023-09-19T19:18:21;2.00;;;1.80;;
37309;SDS011;23195;47.744;7.358;2023-09-19T19:20:57;2.73;;;2.00;;
37309;SDS011;23195;47.744;7.358;2023-09-19T19:23:23;2.97;;;1.90;;
37309;SDS011;23195;47.744;7.358;2023-09-19T19:25:49;2.90;;;1.77;;
37309;SDS011;23195;47.744;7.358;2023-09-19T19:28:15;5.33;;;2.27;;
37309;SDS011;23195;47.744;7.358;2023-09-19T19:30:46;6.80;;;2.30;;
37309;SDS011;23195;47.744;7.358;2023-09-19T19:33:13;5.70;;;1.70;;
37309;SDS011;23195;47.744;7.358;2023-09-19T19:35:39;3.40;;;1.80;;
37309;SDS011;23195;47.744;7.358;2023-09-19T19:38:09;2.70;;;1.70;;
37309;SDS011;23195;47.744;7.358;2023-09-19T19:40:36;2.70;;;1.90;;
37309;SDS011;23195;47.744;7.358;2023-09-19T19:43:03;4.03;;;1.80;;
37309;SDS011;23195;47.744;7.358;2023-09-19T19:45:31;1.93;;;1.50;;
37309;SDS011;23195;47.744;7.358;2023-09-19T19:47:57;3.40;;;1.90;;
37309;SDS011;23195;47.744;7.358;2023-09-19T19:50:23;4.37;;;1.80;;
37309;SDS011;23195;47.744;7.358;2023-09-19T19:52:53;2.70;;;1.73;;
37309;SDS011;23195;47.744;7.358;2023-09-19T19:55:22;3.03;;;2.00;;
37309;SDS011;23195;47.744;7.358;2023-09-19T19:57:52;3.83;;;1.67;;
37309;SDS011;23195;47.744;7.358;2023-09-19T20:00:19;2.90;;;1.63;;
37309;SDS011;23195;47.744;7.358;2023-09-19T20:02:47;2.83;;;1.50;;
37309;SDS011;23195;47.744;7.358;2023-09-19T20:05:17;2.60;;;1.50;;
37309;SDS011;23195;47.744;7.358;2023-09-19T20:07:43;2.80;;;1.90;;
37309;SDS011;23195;47.744;7.358;2023-09-19T20:10:13;3.47;;;1.80;;
37309;SDS011;23195;47.744;7.358;2023-09-19T20:12:44;2.53;;;1.70;;
37309;SDS011;23195;47.744;7.358;2023-09-19T20:15:16;2.53;;;1.90;;
37309;SDS011;23195;47.744;7.358;2023-09-19T20:17:42;5.07;;;1.80;;
37309;SDS011;23195;47.744;7.358;2023-09-19T20:20:08;5.73;;;1.93;;
37309;SDS011;23195;47.744;7.358;2023-09-19T20:22:43;2.17;;;1.60;;
37309;SDS011;23195;47.744;7.358;2023-09-19T20:25:13;2.77;;;1.60;;
37309;SDS011;23195;47.744;7.358;2023-09-19T20:27:40;2.87;;;1.80;;
37309;SDS011;23195;47.744;7.358;2023-09-19T20:30:07;3.23;;;1.70;;
37309;SDS011;23195;47.744;7.358;2023-09-19T20:32:34;3.53;;;1.70;;
37309;SDS011;23195;47.744;7.358;2023-09-19T20:35:04;2.37;;;1.70;;
37309;SDS011;23195;47.744;7.358;2023-09-19T20:37:31;1.63;;;1.50;;
37309;SDS011;23195;47.744;7.358;2023-09-19T20:40:05;3.80;;;1.60;;
37309;SDS011;23195;47.744;7.358;2023-09-19T20:42:35;4.40;;;1.80;;
37309;SDS011;23195;47.744;7.358;2023-09-19T20:45:07;4.23;;;1.80;;
37309;SDS011;23195;47.744;7.358;2023-09-19T20:47:41;3.47;;;1.80;;
37309;SDS011;23195;47.744;7.358;2023-09-19T20:50:10;2.10;;;1.40;;
37309;SDS011;23195;47.744;7.358;2023-09-19T20:52:40;5.63;;;1.73;;
37309;SDS011;23195;47.744;7.358;2023-09-19T20:55:06;2.80;;;1.83;;
37309;SDS011;23195;47.744;7.358;2023-09-19T20:57:33;1.70;;;1.50;;
37309;SDS011;23195;47.744;7.358;2023-09-19T20:59:59;4.23;;;1.90;;
37309;SDS011;23195;47.744;7.358;2023-09-19T21:02:28;2.73;;;1.70;;
37309;SDS011;23195;47.744;7.358;2023-09-19T21:04:55;4.30;;;1.73;;
37309;SDS011;23195;47.744;7.358;2023-09-19T21:07:20;3.80;;;1.83;;
37309;SDS011;23195;47.744;7.358;2023-09-19T21:09:46;3.63;;;2.20;;
37309;SDS011;23195;47.744;7.358;2023-09-19T21:12:13;4.43;;;2.20;;
37309;SDS011;23195;47.744;7.358;2023-09-19T21:14:39;3.90;;;2.00;;
37309;SDS011;23195;47.744;7.358;2023-09-19T21:17:05;2.63;;;1.87;;
37309;SDS011;23195;47.744;7.358;2023-09-19T21:19:30;3.03;;;2.10;;
37309;SDS011;23195;47.744;7.358;2023-09-19T21:21:57;3.50;;;1.87;;
37309;SDS011;23195;47.744;7.358;2023-09-19T21:24:26;2.03;;;1.77;;
37309;SDS011;23195;47.744;7.358;2023-09-19T21:26:55;3.43;;;1.87;;
37309;SDS011;23195;47.744;7.358;2023-09-19T21:29:29;3.83;;;1.90;;
